createdAt,value
2022-12-10T00:01:41.926Z,53.58
2022-12-10T00:04:09.452Z,53.85
2022-12-10T00:06:38.640Z,53.92
2022-12-10T00:09:09.854Z,53.63
2022-12-10T00:11:37.602Z,53.71
2022-12-10T00:14:04.661Z,53.48
2022-12-10T00:16:32.038Z,53.54
2022-12-10T00:18:59.124Z,53.12
2022-12-10T00:21:32.979Z,53.14
2022-12-10T00:24:01.509Z,53.31
2022-12-10T00:26:36.323Z,53.70
2022-12-10T00:29:05.694Z,53.97
2022-12-10T00:31:36.425Z,54.03
2022-12-10T00:34:07.504Z,53.76
2022-12-10T00:36:44.927Z,53.86
2022-12-10T00:39:16.546Z,54.06
2022-12-10T00:41:44.152Z,53.82
2022-12-10T00:44:11.222Z,53.52
2022-12-10T00:46:39.773Z,53.40
2022-12-10T00:49:09.358Z,53.58
2022-12-10T00:51:36.498Z,53.33
2022-12-10T00:54:03.967Z,53.64
2022-12-10T00:56:36.145Z,53.37
2022-12-10T00:59:03.954Z,53.84
2022-12-10T01:01:41.841Z,53.83
2022-12-10T01:04:16.785Z,53.96
2022-12-10T01:06:49.473Z,54.02
2022-12-10T01:09:34.701Z,53.81
2022-12-10T01:12:03.983Z,54.01
2022-12-10T01:14:34.182Z,53.72
2022-12-10T01:17:05.622Z,53.47
2022-12-10T01:19:35.041Z,53.59
2022-12-10T01:22:04.025Z,53.16
2022-12-10T01:24:32.455Z,53.30
2022-12-10T01:26:59.887Z,53.89
2022-12-10T01:29:29.036Z,53.60
2022-12-10T01:31:58.524Z,53.67
2022-12-10T01:34:26.396Z,53.76
2022-12-10T01:36:56.858Z,53.92
2022-12-10T01:39:24.405Z,53.67
2022-12-10T01:41:58.665Z,54.12
2022-12-10T01:44:25.640Z,54.04
2022-12-10T01:46:59.125Z,54.19
2022-12-10T01:49:33.757Z,54.16
2022-12-10T01:52:00.865Z,53.83
2022-12-10T01:54:37.430Z,53.65
2022-12-10T01:57:15.459Z,53.69
2022-12-10T01:59:46.113Z,53.86
2022-12-10T02:02:37.193Z,53.85
2022-12-10T02:05:27.410Z,53.68
2022-12-10T02:08:26.666Z,53.11
2022-12-10T02:11:21.141Z,52.84
2022-12-10T02:14:20.524Z,53.15
2022-12-10T02:17:04.611Z,52.89
2022-12-10T02:19:58.791Z,53.72
2022-12-10T02:22:31.164Z,53.79
2022-12-10T02:25:00.237Z,53.52
2022-12-10T02:27:36.176Z,53.78
2022-12-10T02:30:04.315Z,54.12
2022-12-10T02:32:38.343Z,54.05
2022-12-10T02:35:13.701Z,54.26
2022-12-10T02:37:51.531Z,54.01
2022-12-10T02:40:28.575Z,53.60
2022-12-10T02:42:55.729Z,53.76
2022-12-10T02:45:27.362Z,53.77
2022-12-10T02:48:00.464Z,53.42
2022-12-10T02:50:35.238Z,53.47
2022-12-10T02:53:04.286Z,53.76
2022-12-10T02:55:56.315Z,53.92
2022-12-10T02:58:54.299Z,53.81
2022-12-10T03:02:07.516Z,53.42
2022-12-10T03:05:01.200Z,53.27
2022-12-10T03:07:47.662Z,53.50
2022-12-10T03:10:40.459Z,53.29
2022-12-10T03:13:16.201Z,53.21
2022-12-10T03:15:45.436Z,52.93
2022-12-10T03:18:15.884Z,52.96
2022-12-10T03:20:47.087Z,52.92
2022-12-10T03:23:18.819Z,53.09
2022-12-10T03:25:51.279Z,53.03
2022-12-10T03:28:21.105Z,52.85
2022-12-10T03:30:50.124Z,52.82
2022-12-10T03:33:17.876Z,52.65
2022-12-10T03:35:45.959Z,52.66
2022-12-10T03:38:13.684Z,52.69
2022-12-10T03:40:41.038Z,52.89
2022-12-10T03:43:08.106Z,53.01
2022-12-10T03:45:35.157Z,52.91
2022-12-10T03:48:02.198Z,53.05
2022-12-10T03:50:29.290Z,53.02
2022-12-10T03:52:56.301Z,52.81
2022-12-10T03:55:23.386Z,52.71
2022-12-10T03:57:50.385Z,52.80
2022-12-10T04:00:18.005Z,52.69
2022-12-10T04:02:45.116Z,52.41
2022-12-10T04:05:12.176Z,52.82
2022-12-10T04:07:39.307Z,52.66
2022-12-10T04:10:07.040Z,53.00
2022-12-10T04:12:34.751Z,52.86
2022-12-10T04:15:20.042Z,52.75
2022-12-10T04:17:47.079Z,52.65
2022-12-10T04:20:32.546Z,52.94
2022-12-10T04:23:18.001Z,53.30
2022-12-10T04:26:03.382Z,52.68
2022-12-10T04:28:30.460Z,52.61
2022-12-10T04:30:57.627Z,52.54
2022-12-10T04:33:24.718Z,52.81
2022-12-10T04:35:51.807Z,52.14
2022-12-10T04:38:18.874Z,52.39
2022-12-10T04:40:46.014Z,52.09
2022-12-10T04:43:13.046Z,52.12
2022-12-10T04:45:40.089Z,52.45
2022-12-10T04:48:07.095Z,52.29
2022-12-10T04:50:35.914Z,52.45
2022-12-10T04:53:02.899Z,52.50
2022-12-10T04:55:29.921Z,52.10
2022-12-10T04:57:56.965Z,51.73
2022-12-10T05:00:24.046Z,51.65
2022-12-10T05:02:51.088Z,51.64
2022-12-10T05:05:18.129Z,51.88
2022-12-10T05:07:45.824Z,52.09
2022-12-10T05:10:13.040Z,52.20
2022-12-10T05:12:40.154Z,51.99
2022-12-10T05:15:08.352Z,51.84
2022-12-10T05:17:35.505Z,51.78
2022-12-10T05:20:03.821Z,52.06
2022-12-10T05:22:49.211Z,51.91
2022-12-10T05:25:16.407Z,52.37
2022-12-10T05:27:43.470Z,52.25
2022-12-10T05:30:11.546Z,52.17
2022-12-10T05:32:38.911Z,52.35
2022-12-10T05:35:06.648Z,52.40
2022-12-10T05:37:34.262Z,52.56
2022-12-10T05:40:01.265Z,52.62
2022-12-10T05:42:29.158Z,52.68
2022-12-10T05:44:56.187Z,52.66
2022-12-10T05:47:23.204Z,52.65
2022-12-10T05:49:52.493Z,52.76
2022-12-10T05:52:19.925Z,52.87
2022-12-10T05:54:47.005Z,53.01
2022-12-10T05:57:14.055Z,53.11
2022-12-10T05:59:41.117Z,53.00
2022-12-10T06:02:08.174Z,53.03
2022-12-10T06:04:35.308Z,53.12
2022-12-10T06:07:06.587Z,53.24
2022-12-10T06:09:36.619Z,53.62
2022-12-10T06:12:03.865Z,54.08
2022-12-10T06:14:30.964Z,54.05
2022-12-10T06:16:58.000Z,54.38
2022-12-10T06:19:25.529Z,54.84
2022-12-10T06:21:52.555Z,54.99
2022-12-10T06:24:19.639Z,55.00
2022-12-10T06:26:50.566Z,54.62
2022-12-10T06:29:20.954Z,54.49
2022-12-10T06:31:48.064Z,54.46
2022-12-10T06:34:15.237Z,54.02
2022-12-10T06:36:42.284Z,53.91
2022-12-10T06:39:09.500Z,54.01
2022-12-10T06:41:36.621Z,53.90
2022-12-10T06:44:03.787Z,53.80
2022-12-10T06:46:30.853Z,54.13
2022-12-10T06:48:57.999Z,53.79
2022-12-10T06:51:26.024Z,54.05
2022-12-10T06:53:53.160Z,54.26
2022-12-10T06:56:20.937Z,54.15
2022-12-10T06:58:48.714Z,53.99
2022-12-10T07:01:21.450Z,53.90
2022-12-10T07:03:57.930Z,53.81
2022-12-10T07:06:29.684Z,53.87
2022-12-10T07:08:56.802Z,54.03
2022-12-10T07:11:25.735Z,54.08
2022-12-10T07:13:53.638Z,53.85
2022-12-10T07:16:27.986Z,53.84
2022-12-10T07:18:57.933Z,53.96
2022-12-10T07:21:36.667Z,53.85
2022-12-10T07:24:18.079Z,54.36
2022-12-10T07:26:46.938Z,54.37
2022-12-10T07:29:20.590Z,54.28
2022-12-10T07:31:49.353Z,54.40
2022-12-10T07:34:16.766Z,54.33
2022-12-10T07:36:43.824Z,54.85
2022-12-10T07:39:18.122Z,54.84
2022-12-10T07:41:51.101Z,55.04
2022-12-10T07:44:20.552Z,54.72
2022-12-10T07:46:48.734Z,54.64
2022-12-10T07:49:16.438Z,54.42
2022-12-10T07:51:48.306Z,54.42
2022-12-10T07:54:16.516Z,54.22
2022-12-10T07:56:43.933Z,54.27
2022-12-10T07:59:11.491Z,54.26
2022-12-10T08:01:39.816Z,54.43
2022-12-10T08:04:06.908Z,55.17
2022-12-10T08:06:34.066Z,55.18
2022-12-10T08:09:01.209Z,55.38
2022-12-10T08:11:29.339Z,54.88
2022-12-10T08:13:57.895Z,55.01
2022-12-10T08:16:28.346Z,54.62
2022-12-10T08:18:58.357Z,54.89
2022-12-10T08:21:30.620Z,54.75
2022-12-10T08:23:58.051Z,54.69
2022-12-10T08:26:29.101Z,54.55
2022-12-10T08:28:57.511Z,54.71
2022-12-10T08:31:28.112Z,54.61
2022-12-10T08:33:57.040Z,54.39
2022-12-10T08:36:24.293Z,54.46
2022-12-10T08:38:51.452Z,54.39
2022-12-10T08:41:23.564Z,54.42
2022-12-10T08:43:53.327Z,54.30
2022-12-10T08:46:20.918Z,54.14
2022-12-10T08:48:48.533Z,53.69
2022-12-10T08:51:18.852Z,54.03
2022-12-10T08:53:46.334Z,54.10
2022-12-10T08:56:13.559Z,54.04
2022-12-10T08:58:40.944Z,54.04
2022-12-10T09:01:13.554Z,53.52
2022-12-10T09:03:40.768Z,53.66
2022-12-10T09:06:12.523Z,53.46
2022-12-10T09:08:40.089Z,53.41
2022-12-10T09:11:14.605Z,53.89
2022-12-10T09:13:43.283Z,54.19
2022-12-10T09:16:11.079Z,54.26
2022-12-10T09:18:38.643Z,53.97
2022-12-10T09:21:13.512Z,54.22
2022-12-10T09:23:42.029Z,54.18
2022-12-10T09:26:12.730Z,54.66
2022-12-10T09:28:43.992Z,54.80
2022-12-10T09:31:16.355Z,55.40
2022-12-10T09:33:50.623Z,54.63
2022-12-10T09:36:19.656Z,54.62
2022-12-10T09:38:47.937Z,54.65
2022-12-10T09:41:45.534Z,54.96
2022-12-10T09:44:30.433Z,55.15
2022-12-10T09:47:01.683Z,55.76
2022-12-10T09:49:52.559Z,55.71
2022-12-10T09:52:24.579Z,55.12
2022-12-10T09:55:03.677Z,55.34
2022-12-10T09:57:41.302Z,55.02
2022-12-10T10:00:39.186Z,54.86
2022-12-10T10:03:07.497Z,55.25
2022-12-10T10:05:41.640Z,55.42
2022-12-10T10:08:23.099Z,55.19
2022-12-10T10:10:50.927Z,54.73
2022-12-10T10:13:37.411Z,54.94
2022-12-10T10:16:22.795Z,54.82
2022-12-10T10:19:02.908Z,55.02
2022-12-10T10:21:39.267Z,54.54
2022-12-10T10:24:12.174Z,54.77
2022-12-10T10:26:39.951Z,54.50
2022-12-10T10:29:11.351Z,54.75
2022-12-10T10:31:42.421Z,54.46
2022-12-10T10:34:23.101Z,54.58
2022-12-10T10:36:58.557Z,54.73
2022-12-10T10:39:35.809Z,55.42
2022-12-10T10:42:10.930Z,54.84
2022-12-10T10:44:39.891Z,56.78
2022-12-10T10:47:34.958Z,56.78
2022-12-10T10:50:06.684Z,55.96
2022-12-10T10:52:40.040Z,56.34
2022-12-10T10:55:37.217Z,56.27
2022-12-10T10:58:04.774Z,55.82
2022-12-10T11:00:31.892Z,56.00
2022-12-10T11:02:59.450Z,55.79
2022-12-10T11:05:35.888Z,55.97
2022-12-10T11:08:08.582Z,55.69
2022-12-10T11:10:38.914Z,55.84
2022-12-10T11:13:31.789Z,55.85
2022-12-10T11:16:23.898Z,55.74
2022-12-10T11:19:03.549Z,55.51
2022-12-10T11:21:33.166Z,55.82
2022-12-10T11:24:01.960Z,55.56
2022-12-10T11:27:45.442Z,56.36
2022-12-10T11:30:23.275Z,55.76
2022-12-10T11:33:17.967Z,55.49
2022-12-10T11:36:07.601Z,55.17
2022-12-10T11:39:18.081Z,55.09
2022-12-10T11:42:19.851Z,55.15
2022-12-10T11:45:14.878Z,55.21
2022-12-10T11:48:02.468Z,54.94
2022-12-10T11:50:50.511Z,55.05
2022-12-10T11:53:38.435Z,55.56
2022-12-10T11:56:32.280Z,55.56
2022-12-10T11:59:16.065Z,55.32
2022-12-10T12:02:09.894Z,56.04
2022-12-10T12:05:20.503Z,56.39
2022-12-10T12:08:50.606Z,56.54
2022-12-10T12:11:46.458Z,56.38
2022-12-10T12:14:28.329Z,56.22
2022-12-10T12:17:21.744Z,56.33
2022-12-10T12:19:59.834Z,55.78
2022-12-10T12:22:34.081Z,55.80
2022-12-10T12:25:17.615Z,55.96
2022-12-10T12:27:52.622Z,55.33
2022-12-10T12:30:22.814Z,55.42
2022-12-10T12:33:44.039Z,55.86
2022-12-10T12:36:27.028Z,55.29
2022-12-10T12:39:15.379Z,55.15
2022-12-10T12:42:04.653Z,55.42
2022-12-10T12:45:36.522Z,55.59
2022-12-10T12:48:25.027Z,55.87
2022-12-10T12:51:08.026Z,55.82
2022-12-10T12:53:35.987Z,55.55
2022-12-10T12:56:42.722Z,55.61
2022-12-10T12:59:15.570Z,55.71
2022-12-10T13:01:57.498Z,55.66
2022-12-10T13:04:25.997Z,55.70
2022-12-10T13:07:15.117Z,55.73
2022-12-10T13:10:13.741Z,56.02
2022-12-10T13:13:19.001Z,56.04
2022-12-10T13:15:46.304Z,55.89
2022-12-10T13:18:19.034Z,55.97
2022-12-10T13:21:31.405Z,57.12
2022-12-10T13:24:20.715Z,56.88
2022-12-10T13:27:12.847Z,56.67
2022-12-10T13:30:04.197Z,56.74
2022-12-10T13:32:31.269Z,56.53
2022-12-10T13:35:10.532Z,56.66
2022-12-10T13:37:49.812Z,56.93
2022-12-10T13:40:26.400Z,56.99
2022-12-10T13:43:43.297Z,57.10
2022-12-10T13:46:33.409Z,57.33
2022-12-10T13:49:07.954Z,57.43
2022-12-10T13:51:43.849Z,57.53
2022-12-10T13:54:29.217Z,57.34
2022-12-10T13:57:21.123Z,57.94
2022-12-10T14:00:08.124Z,57.66
2022-12-10T14:02:47.546Z,56.84
2022-12-10T14:05:26.121Z,56.93
2022-12-10T14:07:57.115Z,57.56
2022-12-10T14:10:32.182Z,57.62
2022-12-10T14:13:05.911Z,57.23
2022-12-10T14:15:38.638Z,57.48
2022-12-10T14:18:13.107Z,57.15
2022-12-10T14:20:47.040Z,57.01
2022-12-10T14:23:34.041Z,56.65
2022-12-10T14:26:16.071Z,56.72
2022-12-10T14:28:47.658Z,56.83
2022-12-10T14:31:34.852Z,57.14
2022-12-10T14:34:07.995Z,57.03
2022-12-10T14:36:46.690Z,56.99
2022-12-10T14:39:32.027Z,56.87
2022-12-10T14:42:04.175Z,56.78
2022-12-10T14:44:32.705Z,56.54
2022-12-10T14:47:11.863Z,56.84
2022-12-10T14:49:46.494Z,57.14
2022-12-10T14:52:21.559Z,56.98
2022-12-10T14:54:50.436Z,57.37
2022-12-10T14:57:31.188Z,57.13
2022-12-10T15:00:13.015Z,57.18
2022-12-10T15:02:44.500Z,57.81
2022-12-10T15:05:21.820Z,57.75
2022-12-10T15:08:26.587Z,57.39
2022-12-10T15:10:58.240Z,57.99
2022-12-10T15:13:40.517Z,57.78
2022-12-10T15:16:20.335Z,57.73
2022-12-10T15:18:47.723Z,57.71
2022-12-10T15:21:18.385Z,57.98
2022-12-10T15:23:47.209Z,57.90
2022-12-10T15:26:29.547Z,57.95
2022-12-10T15:29:28.567Z,58.24
2022-12-10T15:32:10.845Z,57.59
2022-12-10T15:34:44.468Z,57.75
2022-12-10T15:37:34.807Z,57.93
2022-12-10T15:40:06.269Z,58.29
2022-12-10T15:42:42.168Z,58.73
2022-12-10T15:45:27.269Z,58.59
2022-12-10T15:48:01.035Z,58.50
2022-12-10T15:50:29.875Z,58.85
2022-12-10T15:52:57.020Z,58.28
2022-12-10T15:55:24.158Z,57.82
2022-12-10T15:57:51.345Z,57.43
2022-12-10T16:00:29.157Z,58.35
2022-12-10T16:03:00.371Z,57.97
2022-12-10T16:05:32.228Z,57.58
2022-12-10T16:08:25.859Z,57.62
2022-12-10T16:10:57.216Z,57.89
2022-12-10T16:13:32.397Z,58.24
2022-12-10T16:16:05.742Z,59.01
2022-12-10T16:18:34.626Z,59.19
2022-12-10T16:21:02.043Z,58.28
2022-12-10T16:23:29.395Z,58.33
2022-12-10T16:25:56.757Z,58.31
2022-12-10T16:28:24.924Z,58.64
2022-12-10T16:30:58.160Z,57.99
2022-12-10T16:33:27.698Z,58.59
2022-12-10T16:35:58.194Z,58.47
2022-12-10T16:38:26.593Z,58.04
2022-12-10T16:40:53.796Z,58.15
2022-12-10T16:43:30.219Z,58.13
2022-12-10T16:45:58.132Z,58.43
2022-12-10T16:48:25.766Z,58.35
2022-12-10T16:50:53.838Z,57.79
2022-12-10T16:53:35.699Z,58.25
2022-12-10T16:56:03.237Z,58.42
2022-12-10T16:58:30.361Z,58.62
2022-12-10T17:00:57.731Z,57.90
2022-12-10T17:03:29.695Z,58.37
2022-12-10T17:06:04.693Z,58.18
2022-12-10T17:08:31.898Z,58.10
2022-12-10T17:11:18.031Z,58.62
2022-12-10T17:13:46.523Z,59.03
2022-12-10T17:16:21.314Z,58.73
2022-12-10T17:18:48.656Z,58.68
2022-12-10T17:21:15.879Z,58.24
2022-12-10T17:23:43.002Z,58.02
2022-12-10T17:26:39.456Z,58.59
2022-12-10T17:29:15.599Z,58.06
2022-12-10T17:31:44.317Z,57.90
2022-12-10T17:34:13.403Z,57.79
2022-12-10T17:36:42.422Z,58.01
2022-12-10T17:39:21.841Z,57.96
2022-12-10T17:41:49.980Z,58.09
2022-12-10T17:44:17.235Z,58.23
2022-12-10T17:46:44.416Z,58.26
2022-12-10T17:49:16.380Z,58.52
2022-12-10T17:51:44.777Z,58.90
2022-12-10T17:54:12.512Z,58.39
2022-12-10T17:56:39.869Z,58.45
2022-12-10T17:59:06.947Z,58.73
2022-12-10T18:01:34.739Z,58.82
2022-12-10T18:04:01.918Z,59.40
2022-12-10T18:06:31.457Z,59.49
2022-12-10T18:09:01.667Z,59.48
2022-12-10T18:11:35.470Z,59.05
2022-12-10T18:14:03.468Z,59.05
2022-12-10T18:16:34.419Z,58.55
2022-12-10T18:19:07.387Z,58.58
2022-12-10T18:21:34.931Z,58.40
2022-12-10T18:24:02.116Z,57.99
2022-12-10T18:26:35.159Z,57.95
2022-12-10T18:29:04.345Z,57.82
2022-12-10T18:31:35.302Z,57.39
2022-12-10T18:34:07.058Z,57.54
2022-12-10T18:36:38.401Z,57.61
2022-12-10T18:39:29.166Z,57.27
2022-12-10T18:41:56.348Z,57.39
2022-12-10T18:44:26.495Z,58.12
2022-12-10T18:46:56.578Z,57.94
2022-12-10T18:49:24.931Z,58.48
2022-12-10T18:51:52.472Z,58.77
2022-12-10T18:54:19.829Z,58.43
2022-12-10T18:57:03.299Z,58.53
2022-12-10T18:59:34.638Z,58.33
2022-12-10T19:02:01.924Z,58.59
2022-12-10T19:04:29.247Z,58.15
2022-12-10T19:06:57.181Z,58.24
2022-12-10T19:09:26.915Z,58.02
2022-12-10T19:11:57.956Z,58.13
2022-12-10T19:14:25.119Z,58.12
2022-12-10T19:16:52.232Z,57.84
2022-12-10T19:19:19.381Z,58.04
2022-12-10T19:21:47.132Z,58.27
2022-12-10T19:24:14.978Z,58.47
2022-12-10T19:26:43.678Z,58.10
2022-12-10T19:29:23.284Z,57.90
2022-12-10T19:31:51.166Z,57.23
2022-12-10T19:34:20.558Z,57.49
2022-12-10T19:36:49.891Z,57.72
2022-12-10T19:39:24.416Z,58.21
2022-12-10T19:41:53.491Z,58.39
2022-12-10T19:44:21.015Z,57.90
2022-12-10T19:46:48.456Z,57.61
2022-12-10T19:49:17.670Z,57.87
2022-12-10T19:51:45.338Z,57.61
2022-12-10T19:54:12.683Z,57.09
2022-12-10T19:56:40.489Z,57.63
2022-12-10T19:59:16.305Z,57.37
2022-12-10T20:01:44.319Z,56.78
2022-12-10T20:04:14.388Z,57.02
2022-12-10T20:06:43.716Z,57.19
2022-12-10T20:09:25.234Z,57.09
2022-12-10T20:11:52.437Z,57.23
2022-12-10T20:14:21.692Z,57.17
2022-12-10T20:16:53.938Z,56.96
2022-12-10T20:19:24.601Z,56.87
2022-12-10T20:21:53.664Z,56.83
2022-12-10T20:24:21.234Z,56.66
2022-12-10T20:26:50.773Z,56.10
2022-12-10T20:29:19.408Z,55.81
2022-12-10T20:31:50.469Z,55.94
2022-12-10T20:34:18.301Z,55.91
2022-12-10T20:36:46.237Z,55.68
2022-12-10T20:39:22.635Z,55.62
2022-12-10T20:41:52.550Z,55.28
2022-12-10T20:44:21.655Z,55.55
2022-12-10T20:46:49.988Z,56.41
2022-12-10T20:49:19.423Z,56.63
2022-12-10T20:51:47.189Z,56.85
2022-12-10T20:54:14.845Z,57.23
2022-12-10T20:56:42.251Z,56.86
2022-12-10T20:59:13.096Z,56.94
2022-12-10T21:01:40.562Z,57.08
2022-12-10T21:04:07.688Z,56.94
2022-12-10T21:06:34.847Z,57.57
2022-12-10T21:09:02.060Z,57.51
2022-12-10T21:11:29.368Z,57.67
2022-12-10T21:13:56.668Z,57.73
2022-12-10T21:16:25.897Z,57.28
2022-12-10T21:18:54.335Z,57.64
2022-12-10T21:21:25.386Z,57.58
2022-12-10T21:23:53.056Z,57.12
2022-12-10T21:26:20.514Z,57.49
2022-12-10T21:28:47.993Z,57.17
2022-12-10T21:31:22.299Z,56.80
2022-12-10T21:33:50.234Z,56.83
2022-12-10T21:36:19.534Z,56.56
2022-12-10T21:38:46.919Z,56.23
2022-12-10T21:41:42.560Z,56.22
2022-12-10T21:44:10.581Z,56.09
2022-12-10T21:46:39.694Z,55.89
2022-12-10T21:49:07.893Z,55.81
2022-12-10T21:51:39.803Z,55.45
2022-12-10T21:54:09.134Z,55.55
2022-12-10T21:56:37.429Z,55.84
2022-12-10T21:59:05.017Z,55.89
2022-12-10T22:01:32.768Z,56.20
2022-12-10T22:03:59.944Z,56.61
2022-12-10T22:06:29.300Z,56.99
2022-12-10T22:08:57.550Z,57.35
2022-12-10T22:11:24.745Z,57.11
2022-12-10T22:13:55.754Z,57.30
2022-12-10T22:16:23.456Z,57.52
2022-12-10T22:18:50.620Z,57.49
2022-12-10T22:21:23.307Z,57.03
2022-12-10T22:23:52.859Z,56.55
2022-12-10T22:26:22.022Z,56.65
2022-12-10T22:28:49.843Z,56.38
2022-12-10T22:31:17.727Z,55.90
2022-12-10T22:33:44.906Z,55.69
2022-12-10T22:36:12.163Z,55.94
2022-12-10T22:38:39.319Z,55.89
2022-12-10T22:41:07.417Z,56.11
2022-12-10T22:43:50.391Z,55.44
2022-12-10T22:46:19.660Z,55.51
2022-12-10T22:48:47.263Z,55.77
2022-12-10T22:51:14.378Z,55.48
2022-12-10T22:53:41.665Z,56.17
2022-12-10T22:56:12.573Z,55.27
2022-12-10T22:58:39.982Z,55.69
2022-12-10T23:01:07.720Z,55.47
2022-12-10T23:03:34.755Z,55.07
2022-12-10T23:06:01.939Z,54.64
2022-12-10T23:08:35.786Z,54.68
2022-12-10T23:11:06.765Z,54.53
2022-12-10T23:13:37.994Z,54.43
2022-12-10T23:16:09.201Z,55.17
2022-12-10T23:18:36.666Z,54.91
2022-12-10T23:21:03.906Z,55.41
2022-12-10T23:23:30.991Z,55.22
2022-12-10T23:26:02.534Z,55.45
2022-12-10T23:28:29.579Z,55.15
2022-12-10T23:30:59.027Z,55.00
2022-12-10T23:33:26.419Z,54.70
2022-12-10T23:35:53.489Z,55.22
2022-12-10T23:38:20.963Z,55.19
2022-12-10T23:40:48.654Z,55.26
2022-12-10T23:43:15.736Z,55.58
2022-12-10T23:45:44.156Z,55.62
2022-12-10T23:48:11.852Z,55.73
2022-12-10T23:50:39.219Z,55.95
2022-12-10T23:53:06.960Z,55.94
2022-12-10T23:55:34.170Z,55.95
2022-12-10T23:58:01.257Z,56.08
